Pagrindinis puslapis
METAR-TAF:

METAR-TAF

Oro uostai :

Samsunas, Turkija

platuma: 41-15-15N, ilguma: 036-34-03E, Aukštis: 5 m

Dabartinis oras

Ataskaita buvo paskelbta 1 valandą ir 11 minutes, ne 03:50 UTC
Vėjas 3 kt iš Pietvakarių, svyruoja nuo Pietų ir Vakarų/Pietvakarių
Temperatūra 23°C
Drėgmė 65%
Slėgis 1015 hPa
Matomumas 10 km arba daugiau
Mažai debesys ne aukštis 3600 ft
Išsisklaidę debesys ne aukštis 10000 ft

METAR: LTFH 110350Z 23003KT 180V250 9999 FEW036 SCT100 23/16 Q1015 NOSIG

Laikas: 08:01 (05:01 UTC)

Prognozė

Ataskaita buvo paskelbta 3 valandos ir 21 minutes, ne 01:40 UTC
Prognozė galioja nuo 11 metu 03 UTC su 11 metu 12 UTC
Vėjas 9 kt iš Vakarų/Šiaurės Vakarų
Matomumas 10 km arba daugiau
Mažai debesys ne aukštis 3600 ft
Išsisklaidę debesys ne aukštis 10000 ft

TAF: LTFH 110140Z 1103/1112 30009KT 9999 FEW036 SCT100

Orai ataskaitas ir orų prognozės (METAR, TAF).

turimą stotys yra geltonos ir raudonos taškus žemėlapyje.

Perkelti pele per norėdami pamatyti stoties vardą.

Tada spustelėkite, norėdami matyti oro stebėjimo ir prognozės.

Norėdami pakeisti žemėlapį: spustelėkite ant žalios mygtukų su juodo kryžiaus žemyn,; žalią mygtuką su brūkšneliu, jei norite nutolinti; arba žalių rodyklių gretimoms žemėlapius.


METAR-TAF: